createdAt,value
2017-04-27T00:00:27.388Z,0
2017-04-27T00:01:37.669Z,0
2017-04-27T00:02:48.238Z,0
2017-04-27T00:03:58.524Z,0
2017-04-27T00:05:08.808Z,0
2017-04-27T00:06:18.781Z,0
2017-04-27T00:07:29.055Z,0
2017-04-27T00:08:39.277Z,0
2017-04-27T00:09:49.556Z,0
2017-04-27T00:10:59.832Z,0
2017-04-27T00:12:10.156Z,0
2017-04-27T00:13:20.124Z,0
2017-04-27T00:14:30.343Z,0
2017-04-27T00:15:40.321Z,0
2017-04-27T00:16:50.635Z,0
2017-04-27T00:18:00.917Z,0
2017-04-27T00:19:11.187Z,0
2017-04-27T00:20:21.714Z,0
2017-04-27T00:21:31.992Z,0
2017-04-27T00:22:41.962Z,0
2017-04-27T00:23:52.247Z,0
2017-04-27T00:25:02.538Z,0
2017-04-27T00:26:13.083Z,0
2017-04-27T00:27:23.368Z,0
2017-04-27T00:28:33.657Z,0
2017-04-27T00:29:43.624Z,0
2017-04-27T00:30:53.595Z,0
2017-04-27T00:32:04.186Z,0
2017-04-27T00:33:13.849Z,0
2017-04-27T00:34:24.122Z,0
2017-04-27T00:35:34.091Z,0
2017-04-27T00:36:44.068Z,0
2017-04-27T00:37:54.028Z,0
2017-04-27T00:39:03.992Z,0
2017-04-27T00:40:13.967Z,0
2017-04-27T00:41:23.932Z,0
2017-04-27T00:42:34.213Z,0
2017-04-27T00:43:44.743Z,0
2017-04-27T00:44:54.715Z,0
2017-04-27T00:46:05.236Z,0
2017-04-27T00:47:15.517Z,0
2017-04-27T00:48:25.476Z,0
2017-04-27T00:49:36.036Z,0
2017-04-27T00:50:46.313Z,0
2017-04-27T00:51:56.290Z,0
2017-04-27T00:53:06.568Z,0
2017-04-27T00:54:16.535Z,0
2017-04-27T00:55:27.076Z,0
2017-04-27T00:56:37.078Z,0
2017-04-27T00:57:47.366Z,0
2017-04-27T00:58:57.644Z,0
2017-04-27T01:00:07.931Z,0
2017-04-27T01:01:18.514Z,0
2017-04-27T01:02:28.819Z,0
2017-04-27T01:03:39.106Z,0
2017-04-27T01:04:49.095Z,0
2017-04-27T01:05:59.084Z,0
2017-04-27T01:07:09.317Z,0
2017-04-27T01:08:19.303Z,0
2017-04-27T01:09:29.285Z,0
2017-04-27T01:10:39.565Z,0
2017-04-27T01:11:49.546Z,0
2017-04-27T01:12:59.826Z,0
2017-04-27T01:14:10.115Z,0
2017-04-27T01:15:19.465Z,0
2017-04-27T01:16:29.743Z,0
2017-04-27T01:17:40.030Z,0
2017-04-27T01:18:50.635Z,0
2017-04-27T01:20:00.917Z,0
2017-04-27T01:21:10.898Z,0
2017-04-27T01:22:21.196Z,0
2017-04-27T01:23:31.162Z,0
2017-04-27T01:24:41.696Z,0
2017-04-27T01:25:51.982Z,0
2017-04-27T01:27:02.274Z,0
2017-04-27T01:28:12.251Z,0
2017-04-27T01:29:22.223Z,0
2017-04-27T01:30:32.434Z,0
2017-04-27T01:31:42.723Z,0
2017-04-27T01:32:53.012Z,0
2017-04-27T01:34:03.294Z,0
2017-04-27T01:35:13.583Z,0
2017-04-27T01:36:23.812Z,0
2017-04-27T01:37:33.792Z,0
2017-04-27T01:38:44.075Z,0
2017-04-27T01:39:54.362Z,0
2017-04-27T01:41:04.644Z,0
2017-04-27T01:42:15.176Z,0
2017-04-27T01:43:25.457Z,0
2017-04-27T01:44:35.115Z,0
2017-04-27T01:45:45.093Z,0
2017-04-27T01:46:55.070Z,0
2017-04-27T01:48:05.657Z,0
2017-04-27T01:49:15.629Z,0
2017-04-27T01:50:25.914Z,0
2017-04-27T01:51:36.230Z,0
2017-04-27T01:52:46.519Z,0
2017-04-27T01:53:57.059Z,0
2017-04-27T01:55:07.353Z,0
2017-04-27T01:56:17.338Z,0
2017-04-27T01:57:27.629Z,0
2017-04-27T01:58:37.917Z,0
2017-04-27T01:59:48.446Z,0
2017-04-27T02:00:58.743Z,0
2017-04-27T02:02:09.026Z,0
2017-04-27T02:03:19.002Z,0
2017-04-27T02:04:28.961Z,0
2017-04-27T02:05:39.190Z,0
2017-04-27T02:06:49.167Z,0
2017-04-27T02:07:58.829Z,0
2017-04-27T02:09:09.111Z,0
2017-04-27T02:10:19.393Z,0
2017-04-27T02:11:29.616Z,0
2017-04-27T02:12:39.609Z,0
2017-04-27T02:13:49.595Z,0
2017-04-27T02:14:59.881Z,0
2017-04-27T02:16:09.850Z,0
2017-04-27T02:17:20.400Z,0
2017-04-27T02:18:30.693Z,0
2017-04-27T02:19:40.983Z,0
2017-04-27T02:20:51.274Z,0
2017-04-27T02:22:01.552Z,0
2017-04-27T02:23:11.558Z,0
2017-04-27T02:24:21.852Z,0
2017-04-27T02:25:32.436Z,0
2017-04-27T02:26:42.736Z,0
2017-04-27T02:27:53.028Z,0
2017-04-27T02:29:03.575Z,0
2017-04-27T02:30:13.884Z,0
2017-04-27T02:31:23.871Z,0
2017-04-27T02:32:34.157Z,0
2017-04-27T02:33:44.457Z,0
2017-04-27T02:34:54.988Z,0
2017-04-27T02:36:04.962Z,0
2017-04-27T02:37:15.263Z,0
2017-04-27T02:38:25.231Z,0
2017-04-27T02:39:35.536Z,0
2017-04-27T02:40:46.074Z,0
2017-04-27T02:41:56.347Z,0
2017-04-27T02:43:06.633Z,0
2017-04-27T02:44:16.321Z,0
2017-04-27T02:45:26.600Z,0
2017-04-27T02:46:37.152Z,0
2017-04-27T02:47:47.436Z,0
2017-04-27T02:48:57.732Z,0
2017-04-27T02:50:08.008Z,0
2017-04-27T02:51:17.670Z,0
2017-04-27T02:52:28.211Z,0
2017-04-27T02:53:38.489Z,0
2017-04-27T02:54:48.790Z,0
2017-04-27T02:55:59.075Z,0
2017-04-27T02:57:09.054Z,0
2017-04-27T02:58:19.589Z,0
2017-04-27T02:59:30.198Z,0
2017-04-27T03:00:40.483Z,0
2017-04-27T03:01:50.770Z,0
2017-04-27T03:03:01.052Z,0
2017-04-27T03:04:10.958Z,0
2017-04-27T03:05:21.235Z,0
2017-04-27T03:06:31.202Z,0
2017-04-27T03:07:41.499Z,0
2017-04-27T03:08:51.781Z,0
2017-04-27T03:10:02.006Z,0
2017-04-27T03:11:12.280Z,0
2017-04-27T03:12:22.567Z,0
2017-04-27T03:13:32.850Z,0
2017-04-27T03:14:43.141Z,0
2017-04-27T03:15:53.687Z,0
2017-04-27T03:17:03.670Z,0
2017-04-27T03:18:13.953Z,0
2017-04-27T03:19:24.251Z,0
2017-04-27T03:20:34.223Z,0
2017-04-27T03:21:44.856Z,0
2017-04-27T03:22:54.510Z,0
2017-04-27T03:24:04.791Z,0
2017-04-27T03:25:15.083Z,0
2017-04-27T03:26:24.745Z,0
2017-04-27T03:27:34.978Z,0
2017-04-27T03:28:44.947Z,0
2017-04-27T03:29:54.921Z,0
2017-04-27T03:31:05.195Z,0
2017-04-27T03:32:15.482Z,0
2017-04-27T03:33:25.707Z,0
2017-04-27T03:34:35.696Z,0
2017-04-27T03:35:45.977Z,0
2017-04-27T03:36:55.946Z,0
2017-04-27T03:38:06.233Z,0
2017-04-27T03:39:16.451Z,4
2017-04-27T03:40:26.729Z,4
2017-04-27T03:41:37.020Z,4
2017-04-27T03:42:46.992Z,0
2017-04-27T03:43:57.277Z,0
2017-04-27T03:45:07.818Z,72
2017-04-27T03:46:18.121Z,80
2017-04-27T03:47:28.403Z,96
2017-04-27T03:48:38.680Z,104
2017-04-27T03:49:48.959Z,116
2017-04-27T03:50:59.487Z,124
2017-04-27T03:52:09.772Z,136
2017-04-27T03:53:20.053Z,164
2017-04-27T03:54:30.357Z,180
2017-04-27T03:55:40.637Z,188
2017-04-27T03:56:51.172Z,196
2017-04-27T03:58:01.457Z,204
2017-04-27T03:59:11.736Z,220
2017-04-27T04:00:21.397Z,244
2017-04-27T04:01:31.677Z,268
2017-04-27T04:02:42.212Z,300
2017-04-27T04:03:51.874Z,336
2017-04-27T04:05:02.162Z,360
2017-04-27T04:06:12.470Z,388
2017-04-27T04:07:22.449Z,428
2017-04-27T04:08:32.987Z,464
2017-04-27T04:09:42.643Z,480
2017-04-27T04:10:52.928Z,544
2017-04-27T04:12:03.202Z,552
2017-04-27T04:13:13.185Z,568
2017-04-27T04:14:23.471Z,700
2017-04-27T04:15:33.759Z,760
2017-04-27T04:16:44.046Z,732
2017-04-27T04:17:54.032Z,600
2017-04-27T04:19:04.318Z,600
2017-04-27T04:20:14.856Z,608
2017-04-27T04:21:25.144Z,588
2017-04-27T04:22:35.127Z,664
2017-04-27T04:23:45.424Z,792
2017-04-27T04:24:55.414Z,604
2017-04-27T04:26:05.649Z,828
2017-04-27T04:27:15.930Z,832
2017-04-27T04:28:25.895Z,808
2017-04-27T04:29:36.182Z,860
2017-04-27T04:30:46.465Z,696
2017-04-27T04:31:56.686Z,704
2017-04-27T04:33:06.975Z,752
2017-04-27T04:34:17.250Z,724
2017-04-27T04:35:27.229Z,736
2017-04-27T04:36:36.899Z,760
2017-04-27T04:37:47.120Z,748
2017-04-27T04:38:56.795Z,716
2017-04-27T04:40:06.767Z,692
2017-04-27T04:41:16.746Z,696
2017-04-27T04:42:27.026Z,744
2017-04-27T04:43:37.607Z,832
2017-04-27T04:44:47.895Z,888
2017-04-27T04:45:58.190Z,916
2017-04-27T04:47:08.476Z,936
2017-04-27T04:48:18.759Z,988
2017-04-27T04:49:29.300Z,1072
2017-04-27T04:50:39.583Z,1184
2017-04-27T04:51:49.885Z,1408
2017-04-27T04:53:00.188Z,1532
2017-04-27T04:54:10.484Z,1756
2017-04-27T04:55:21.028Z,2004
2017-04-27T04:56:31.317Z,2004
2017-04-27T04:57:41.617Z,1944
2017-04-27T04:58:51.897Z,2188
2017-04-27T05:00:01.881Z,1940
2017-04-27T05:01:12.175Z,1500
2017-04-27T05:02:22.455Z,1680
2017-04-27T05:03:32.737Z,2184
2017-04-27T05:04:43.031Z,2172
2017-04-27T05:05:53.305Z,2104
2017-04-27T05:07:03.531Z,2012
2017-04-27T05:08:13.840Z,1856
2017-04-27T05:09:24.126Z,1608
2017-04-27T05:10:34.413Z,1472
2017-04-27T05:11:44.399Z,1528
2017-04-27T05:12:54.979Z,1520
2017-04-27T05:14:04.953Z,1668
2017-04-27T05:15:15.247Z,1724
2017-04-27T05:16:25.534Z,1716
2017-04-27T05:17:35.808Z,1800
2017-04-27T05:18:46.434Z,1688
2017-04-27T05:19:56.731Z,1764
2017-04-27T05:21:06.397Z,1888
2017-04-27T05:22:16.694Z,2052
2017-04-27T05:23:26.983Z,1860
2017-04-27T05:24:37.237Z,1932
2017-04-27T05:25:47.533Z,2044
2017-04-27T05:26:57.510Z,2144
2017-04-27T05:28:07.791Z,2236
2017-04-27T05:29:18.087Z,1872
2017-04-27T05:30:28.361Z,1784
2017-04-27T05:31:38.648Z,1532
2017-04-27T05:32:48.315Z,1760
2017-04-27T05:33:58.626Z,2208
2017-04-27T05:35:08.920Z,2100
2017-04-27T05:36:19.139Z,1632
2017-04-27T05:37:29.114Z,1324
2017-04-27T05:38:39.399Z,1300
2017-04-27T05:39:49.729Z,1552
2017-04-27T05:41:00.017Z,1928
2017-04-27T05:42:10.283Z,2100
2017-04-27T05:43:20.598Z,2008
2017-04-27T05:44:30.895Z,1888
2017-04-27T05:45:41.419Z,2068
2017-04-27T05:46:51.707Z,2416
2017-04-27T05:48:02.292Z,2636
2017-04-27T05:49:12.584Z,2724
2017-04-27T05:50:22.870Z,2708
2017-04-27T05:51:32.838Z,2600
2017-04-27T05:52:43.159Z,2096
2017-04-27T05:53:53.729Z,2060
2017-04-27T05:55:04.144Z,2012
2017-04-27T05:56:14.424Z,1920
2017-04-27T05:57:24.750Z,1808
2017-04-27T05:58:34.718Z,2320
2017-04-27T05:59:45.323Z,1880
2017-04-27T06:00:55.626Z,2064
2017-04-27T06:02:05.928Z,1948
2017-04-27T06:03:15.920Z,2428
2017-04-27T06:04:26.203Z,2288
2017-04-27T06:05:36.438Z,2652
2017-04-27T06:06:46.721Z,2624
2017-04-27T06:07:57.037Z,2532
2017-04-27T06:09:07.024Z,2552
2017-04-27T06:10:17.332Z,2612
2017-04-27T06:11:27.261Z,2300
2017-04-27T06:12:37.599Z,1956
2017-04-27T06:13:47.932Z,1492
2017-04-27T06:14:58.243Z,1700
2017-04-27T06:16:08.657Z,2032
2017-04-27T06:17:19.235Z,2180
2017-04-27T06:18:29.477Z,2360
2017-04-27T06:19:39.782Z,2500
2017-04-27T06:20:50.072Z,2708
2017-04-27T06:22:00.375Z,2816
2017-04-27T06:23:10.617Z,2888
2017-04-27T06:24:20.923Z,3000
2017-04-27T06:25:31.253Z,3176
2017-04-27T06:26:41.598Z,3028
2017-04-27T06:27:51.898Z,2916
2017-04-27T06:29:02.148Z,2900
2017-04-27T06:30:12.455Z,2600
2017-04-27T06:31:22.772Z,2796
2017-04-27T06:32:32.747Z,2728
2017-04-27T06:33:43.067Z,2932
2017-04-27T06:34:53.305Z,3240
2017-04-27T06:36:03.009Z,2632
2017-04-27T06:37:12.697Z,2312
2017-04-27T06:38:22.980Z,2252
2017-04-27T06:39:32.972Z,2444
2017-04-27T06:40:43.516Z,2388
2017-04-27T06:41:53.506Z,2276
2017-04-27T06:43:03.492Z,2328
2017-04-27T06:44:13.820Z,2536
2017-04-27T06:45:23.822Z,2508
2017-04-27T06:46:34.046Z,2328
2017-04-27T06:47:44.072Z,2056
2017-04-27T06:48:53.799Z,1984
2017-04-27T06:50:03.583Z,1648
2017-04-27T06:51:13.884Z,1884
2017-04-27T06:52:23.582Z,1812
2017-04-27T06:53:33.914Z,2288
2017-04-27T06:54:43.965Z,2560
2017-04-27T06:55:54.279Z,2272
2017-04-27T06:57:04.597Z,2164
2017-04-27T06:58:14.832Z,2020
2017-04-27T06:59:25.136Z,1648
2017-04-27T07:00:35.451Z,1488
2017-04-27T07:01:45.863Z,1584
2017-04-27T07:02:56.187Z,1728
2017-04-27T07:04:06.430Z,2112
2017-04-27T07:05:16.798Z,2648
2017-04-27T07:06:27.507Z,3080
2017-04-27T07:07:37.852Z,3672
2017-04-27T07:08:48.161Z,3772
2017-04-27T07:09:58.729Z,3924
2017-04-27T07:11:08.726Z,3852
2017-04-27T07:12:19.027Z,3596
2017-04-27T07:13:29.023Z,3580
2017-04-27T07:14:39.330Z,3360
2017-04-27T07:15:49.627Z,3116
2017-04-27T07:16:59.953Z,2760
2017-04-27T07:18:10.249Z,2884
2017-04-27T07:19:20.550Z,2984
2017-04-27T07:20:30.851Z,2768
2017-04-27T07:21:41.397Z,2668
2017-04-27T07:22:51.717Z,2768
2017-04-27T07:24:02.022Z,2824
2017-04-27T07:25:12.309Z,3136
2017-04-27T07:26:22.622Z,3044
2017-04-27T07:27:33.178Z,2928
2017-04-27T07:28:43.484Z,3076
2017-04-27T07:29:53.801Z,3344
2017-04-27T07:31:04.106Z,3504
2017-04-27T07:32:14.572Z,2908
2017-04-27T07:33:24.808Z,2776
2017-04-27T07:34:35.116Z,3012
2017-04-27T07:35:45.102Z,2984
2017-04-27T07:36:55.447Z,2328
2017-04-27T07:38:05.768Z,2316
2017-04-27T07:39:15.728Z,2216
2017-04-27T07:40:26.036Z,2396
2017-04-27T07:41:36.329Z,2712
2017-04-27T07:42:46.645Z,2604
2017-04-27T07:43:56.955Z,2576
2017-04-27T07:45:07.507Z,2572
2017-04-27T07:46:17.493Z,2592
2017-04-27T07:47:27.836Z,2560
2017-04-27T07:48:38.141Z,2652
2017-04-27T07:49:48.436Z,2632
2017-04-27T07:50:58.998Z,2548
2017-04-27T07:52:09.016Z,1948
2017-04-27T07:53:19.347Z,2216
2017-04-27T07:54:29.646Z,2000
2017-04-27T07:55:39.944Z,2492
2017-04-27T07:56:50.178Z,2472
2017-04-27T07:58:00.479Z,1932
2017-04-27T07:59:10.481Z,2428
2017-04-27T08:00:20.787Z,1872
2017-04-27T08:01:30.769Z,1608
2017-04-27T08:02:41.352Z,2432
2017-04-27T08:03:51.684Z,2692
2017-04-27T08:05:01.984Z,2376
2017-04-27T08:06:11.977Z,2376
2017-04-27T08:07:22.263Z,3140
2017-04-27T08:08:32.877Z,3180
2017-04-27T08:09:43.201Z,2580
2017-04-27T08:10:53.527Z,2424
2017-04-27T08:12:03.230Z,2756
2017-04-27T08:13:13.231Z,2580
2017-04-27T08:14:23.784Z,2408
2017-04-27T08:15:33.769Z,2232
2017-04-27T08:16:44.056Z,2340
2017-04-27T08:17:54.364Z,2776
2017-04-27T08:19:04.425Z,2528
2017-04-27T08:20:15.029Z,2620
2017-04-27T08:21:25.327Z,2436
2017-04-27T08:22:35.626Z,2508
2017-04-27T08:23:45.927Z,2736
2017-04-27T08:24:56.223Z,2872
2017-04-27T08:26:05.874Z,2816
2017-04-27T08:27:16.194Z,2744
2017-04-27T08:28:26.230Z,2488
2017-04-27T08:29:36.528Z,2368
2017-04-27T08:30:46.830Z,2304
2017-04-27T08:31:57.483Z,2252
2017-04-27T08:33:07.480Z,2240
2017-04-27T08:34:17.860Z,2560
2017-04-27T08:35:28.151Z,3040
2017-04-27T08:36:38.138Z,3540
2017-04-27T08:37:48.728Z,3988
2017-04-27T08:38:59.049Z,3972
2017-04-27T08:40:09.043Z,4120
2017-04-27T08:41:19.026Z,4144
2017-04-27T08:42:29.317Z,3816
2017-04-27T08:43:39.930Z,3200
2017-04-27T08:44:49.911Z,2700
2017-04-27T08:46:00.216Z,2348
2017-04-27T08:47:10.515Z,2096
2017-04-27T08:48:20.813Z,2124
2017-04-27T08:49:31.358Z,2116
2017-04-27T08:50:41.659Z,2244
2017-04-27T08:51:51.021Z,2404
2017-04-27T08:53:01.010Z,2444
2017-04-27T08:54:11.311Z,2424
2017-04-27T08:55:21.851Z,2284
2017-04-27T08:56:32.156Z,2416
2017-04-27T08:57:42.460Z,2732
2017-04-27T08:58:52.447Z,2712
2017-04-27T09:00:02.434Z,2732
2017-04-27T09:01:12.981Z,2760
2017-04-27T09:02:22.677Z,2776
2017-04-27T09:03:32.708Z,2816
2017-04-27T09:04:43.026Z,3092
2017-04-27T09:05:53.072Z,3220
2017-04-27T09:07:03.682Z,3168
2017-04-27T09:08:13.991Z,3008
2017-04-27T09:09:23.981Z,2708
2017-04-27T09:10:34.275Z,2584
2017-04-27T09:11:44.566Z,2572
2017-04-27T09:12:55.122Z,2580
2017-04-27T09:14:05.428Z,2712
2017-04-27T09:15:15.730Z,2992
2017-04-27T09:16:25.732Z,3392
2017-04-27T09:17:36.034Z,4036
2017-04-27T09:18:46.614Z,4604
2017-04-27T09:19:56.928Z,4652
2017-04-27T09:21:07.225Z,4504
2017-04-27T09:22:17.227Z,4200
2017-04-27T09:23:27.541Z,4076
2017-04-27T09:24:37.838Z,3964
2017-04-27T09:25:47.843Z,4112
2017-04-27T09:26:58.136Z,4028
2017-04-27T09:28:08.432Z,3988
2017-04-27T09:29:18.114Z,3840
2017-04-27T09:30:28.669Z,3776
2017-04-27T09:31:38.993Z,3900
2017-04-27T09:32:49.336Z,3772
2017-04-27T09:33:59.641Z,3344
2017-04-27T09:35:09.829Z,3152
2017-04-27T09:36:19.814Z,2992
2017-04-27T09:37:29.809Z,2900
2017-04-27T09:38:40.241Z,2828
2017-04-27T09:39:50.582Z,3172
2017-04-27T09:41:00.885Z,3280
2017-04-27T09:42:11.141Z,3376
2017-04-27T09:43:21.136Z,3316
2017-04-27T09:44:31.458Z,3760
2017-04-27T09:45:41.442Z,3816
2017-04-27T09:46:51.776Z,3876
2017-04-27T09:48:02.050Z,3616
2017-04-27T09:49:12.376Z,3196
2017-04-27T09:50:22.374Z,2884
2017-04-27T09:51:32.357Z,2472
2017-04-27T09:52:41.743Z,2352
2017-04-27T09:53:52.001Z,2780
2017-04-27T09:55:02.324Z,3256
2017-04-27T09:56:12.304Z,3596
2017-04-27T09:57:21.976Z,3272
2017-04-27T09:58:31.688Z,3280
2017-04-27T09:59:41.618Z,3456
2017-04-27T10:00:51.608Z,3676
2017-04-27T10:02:01.586Z,4008
2017-04-27T10:03:11.581Z,4124
2017-04-27T10:04:21.876Z,3884
2017-04-27T10:05:32.440Z,3576
2017-04-27T10:06:42.818Z,3520
2017-04-27T10:07:52.853Z,3492
2017-04-27T10:09:03.159Z,3296
2017-04-27T10:10:13.582Z,2932
2017-04-27T10:11:24.159Z,2880
2017-04-27T10:12:34.474Z,3144
2017-04-27T10:13:44.160Z,3396
2017-04-27T10:14:54.209Z,3348
2017-04-27T10:16:04.527Z,2660
2017-04-27T10:17:15.074Z,2140
2017-04-27T10:18:25.392Z,2268
2017-04-27T10:19:35.696Z,2356
2017-04-27T10:20:45.675Z,2136
2017-04-27T10:21:55.971Z,2044
2017-04-27T10:23:06.220Z,2056
2017-04-27T10:24:16.201Z,2056
2017-04-27T10:25:26.509Z,2152
2017-04-27T10:26:36.503Z,2280
2017-04-27T10:27:46.858Z,2476
2017-04-27T10:28:57.399Z,2928
2017-04-27T10:30:07.707Z,3036
2017-04-27T10:31:18.018Z,3248
2017-04-27T10:32:28.003Z,3684
2017-04-27T10:33:38.297Z,3724
2017-04-27T10:34:48.886Z,4004
2017-04-27T10:35:58.883Z,4604
2017-04-27T10:37:08.869Z,4132
2017-04-27T10:38:18.860Z,3376
2017-04-27T10:39:29.144Z,2968
2017-04-27T10:40:39.672Z,2824
2017-04-27T10:41:49.973Z,2924
2017-04-27T10:43:00.269Z,2944
2017-04-27T10:44:10.612Z,2956
2017-04-27T10:45:20.595Z,3116
2017-04-27T10:46:31.147Z,3400
2017-04-27T10:47:41.138Z,3520
2017-04-27T10:48:51.120Z,3508
2017-04-27T10:50:01.446Z,3368
2017-04-27T10:51:11.743Z,3208
2017-04-27T10:52:22.296Z,3168
2017-04-27T10:53:32.304Z,2724
2017-04-27T10:54:42.292Z,2380
2017-04-27T10:55:52.300Z,2208
2017-04-27T10:57:02.312Z,2408
2017-04-27T10:58:12.564Z,2888
2017-04-27T10:59:22.568Z,3084
2017-04-27T11:00:32.563Z,3368
2017-04-27T11:01:42.876Z,3676
2017-04-27T11:02:53.231Z,3784
2017-04-27T11:04:03.478Z,3908
2017-04-27T11:05:13.812Z,3924
2017-04-27T11:06:24.116Z,3820
2017-04-27T11:07:33.798Z,3704
2017-04-27T11:08:43.801Z,3796
2017-04-27T11:09:54.047Z,3988
2017-04-27T11:11:04.336Z,3852
2017-04-27T11:12:14.673Z,3604
2017-04-27T11:13:25.036Z,3656
2017-04-27T11:14:35.331Z,3448
2017-04-27T11:15:45.874Z,3452
2017-04-27T11:16:55.911Z,3336
2017-04-27T11:18:06.232Z,2872
2017-04-27T11:19:16.551Z,2404
2017-04-27T11:20:27.054Z,2380
2017-04-27T11:21:37.319Z,2484
2017-04-27T11:22:47.612Z,2576
2017-04-27T11:23:57.985Z,2536
2017-04-27T11:25:08.311Z,2660
2017-04-27T11:26:18.299Z,2632
2017-04-27T11:27:28.852Z,2720
2017-04-27T11:28:38.857Z,2672
2017-04-27T11:29:48.525Z,2740
2017-04-27T11:30:58.526Z,2784
2017-04-27T11:32:08.832Z,2920
2017-04-27T11:33:19.406Z,3272
2017-04-27T11:34:29.446Z,3656
2017-04-27T11:35:39.748Z,3892
2017-04-27T11:36:56.788Z,4044
2017-04-27T11:38:07.089Z,3916
2017-04-27T11:39:17.333Z,3760
2017-04-27T11:40:27.030Z,3716
2017-04-27T11:41:37.027Z,3764
2017-04-27T11:42:47.016Z,3992
2017-04-27T11:43:57.322Z,4312
2017-04-27T11:45:07.557Z,4520
2017-04-27T11:46:17.868Z,4640
2017-04-27T11:47:27.855Z,4068
2017-04-27T11:48:38.171Z,3740
2017-04-27T11:49:48.492Z,3424
2017-04-27T11:50:58.785Z,3232
2017-04-27T11:52:09.102Z,3068
2017-04-27T11:53:19.425Z,3144
2017-04-27T11:54:29.419Z,3404
2017-04-27T11:55:39.758Z,3672
2017-04-27T11:56:50.120Z,3452
2017-04-27T11:58:00.952Z,3188
2017-04-27T11:59:11.289Z,2960
2017-04-27T12:00:21.623Z,2892
2017-04-27T12:01:31.637Z,2696
2017-04-27T12:02:41.867Z,2432
2017-04-27T12:03:52.199Z,2196
2017-04-27T12:05:02.216Z,1980
2017-04-27T12:06:12.546Z,1860
2017-04-27T12:07:22.549Z,1900
2017-04-27T12:08:33.107Z,2160
2017-04-27T12:09:42.804Z,2480
2017-04-27T12:10:53.091Z,2584
2017-04-27T12:12:03.546Z,2508
2017-04-27T12:13:13.229Z,2392
2017-04-27T12:14:23.858Z,2248
2017-04-27T12:15:34.233Z,2264
2017-04-27T12:16:44.564Z,2264
2017-04-27T12:17:54.551Z,2276
2017-04-27T12:19:04.534Z,2432
2017-04-27T12:20:15.085Z,2404
2017-04-27T12:21:25.408Z,2544
2017-04-27T12:22:35.701Z,2892
2017-04-27T12:23:46.026Z,3328
2017-04-27T12:24:56.330Z,3516
2017-04-27T12:26:06.945Z,3276
2017-04-27T12:27:16.645Z,2872
2017-04-27T12:28:26.634Z,2760
2017-04-27T12:29:36.622Z,3276
2017-04-27T12:30:46.629Z,2984
2017-04-27T12:31:57.247Z,2456
2017-04-27T12:33:07.548Z,2136
2017-04-27T12:34:17.563Z,2064
2017-04-27T12:35:27.861Z,1936
2017-04-27T12:36:37.588Z,1800
2017-04-27T12:37:47.979Z,1868
2017-04-27T12:38:58.301Z,2012
2017-04-27T12:40:08.587Z,2020
2017-04-27T12:41:18.900Z,1936
2017-04-27T12:42:28.894Z,1880
2017-04-27T12:43:39.138Z,1928
2017-04-27T12:44:49.467Z,2080
2017-04-27T12:45:59.485Z,2088
2017-04-27T12:47:09.472Z,1980
2017-04-27T12:48:19.489Z,1792
2017-04-27T12:49:29.735Z,1740
2017-04-27T12:50:40.035Z,1756
2017-04-27T12:51:50.360Z,2048
2017-04-27T12:53:00.339Z,2240
2017-04-27T12:54:10.914Z,2352
2017-04-27T12:55:22.293Z,2656
2017-04-27T12:56:32.293Z,3264
2017-04-27T12:57:42.598Z,3704
2017-04-27T12:58:52.279Z,3452
2017-04-27T13:00:02.583Z,3088
2017-04-27T13:01:12.814Z,2900
2017-04-27T13:02:23.149Z,3116
2017-04-27T13:03:33.454Z,3568
2017-04-27T13:04:43.753Z,3736
2017-04-27T13:05:54.111Z,3608
2017-04-27T13:07:04.695Z,3224
2017-04-27T13:08:15.241Z,2472
2017-04-27T13:09:25.251Z,2052
2017-04-27T13:10:35.549Z,1800
2017-04-27T13:11:45.866Z,1700
2017-04-27T13:12:56.474Z,1996
2017-04-27T13:14:06.769Z,2316
2017-04-27T13:15:17.075Z,2196
2017-04-27T13:16:27.369Z,1996
2017-04-27T13:17:37.377Z,1824
2017-04-27T13:18:47.633Z,1692
2017-04-27T13:19:58.175Z,1708
2017-04-27T13:21:08.484Z,1716
2017-04-27T13:26:28.773Z,1244
2017-04-27T13:27:39.072Z,1436
2017-04-27T13:28:49.369Z,1436
2017-04-27T13:29:59.360Z,1432
2017-04-27T13:31:09.815Z,1432
2017-04-27T13:32:19.739Z,1384
2017-04-27T13:33:30.047Z,1428
2017-04-27T13:34:40.367Z,1464
2017-04-27T13:35:50.660Z,1512
2017-04-27T13:37:00.959Z,1544
2017-04-27T13:38:11.563Z,1624
2017-04-27T13:39:21.251Z,1588
2017-04-27T13:40:31.551Z,1524
2017-04-27T13:41:41.861Z,1532
2017-04-27T13:42:52.154Z,1496
2017-04-27T13:44:02.745Z,1560
2017-04-27T13:45:12.477Z,1660
2017-04-27T13:46:22.787Z,1540
2017-04-27T13:47:33.088Z,1448
2017-04-27T13:48:43.400Z,1656
2017-04-27T13:49:53.660Z,1788
2017-04-27T13:51:03.646Z,1972
2017-04-27T13:52:13.639Z,2180
2017-04-27T13:53:23.932Z,2096
2017-04-27T13:54:33.910Z,1836
2017-04-27T13:55:44.446Z,1788
2017-04-27T13:56:54.115Z,2036
2017-04-27T13:58:04.456Z,2076
2017-04-27T13:59:14.762Z,1896
2017-04-27T14:00:25.057Z,1668
2017-04-27T14:01:35.603Z,1544
2017-04-27T14:02:45.593Z,1576
2017-04-27T14:03:55.576Z,1744
2017-04-27T14:05:05.867Z,1884
2017-04-27T14:06:16.162Z,1984
2017-04-27T14:07:26.384Z,1940
2017-04-27T14:08:36.362Z,1740
2017-04-27T14:09:46.337Z,1472
2017-04-27T14:10:56.647Z,1696
2017-04-27T14:12:06.645Z,2080
2017-04-27T14:13:17.188Z,2364
2017-04-27T14:14:27.480Z,2532
2017-04-27T14:15:37.796Z,2180
2017-04-27T14:16:48.086Z,1736
2017-04-27T14:17:58.390Z,1452
2017-04-27T14:19:08.670Z,1264
2017-04-27T14:20:18.968Z,1236
2017-04-27T14:21:29.263Z,1280
2017-04-27T14:22:39.261Z,1276
2017-04-27T14:23:49.256Z,1176
2017-04-27T14:24:59.546Z,1184
2017-04-27T14:26:09.850Z,1292
2017-04-27T14:27:20.150Z,1624
2017-04-27T14:28:30.134Z,1740
2017-04-27T14:29:40.440Z,1600
2017-04-27T14:30:50.672Z,1556
2017-04-27T14:32:00.976Z,1520
2017-04-27T14:33:11.284Z,1584
2017-04-27T14:34:21.260Z,1632
2017-04-27T14:35:30.927Z,1928
2017-04-27T14:36:41.168Z,2044
2017-04-27T14:37:51.482Z,1936
2017-04-27T14:39:01.486Z,1996
2017-04-27T14:40:11.792Z,1940
2017-04-27T14:41:22.315Z,2200
2017-04-27T14:42:32.861Z,2096
2017-04-27T14:43:42.848Z,1844
2017-04-27T14:44:52.842Z,1596
2017-04-27T14:46:03.154Z,1532
2017-04-27T14:47:13.465Z,1648
2017-04-27T14:48:23.447Z,2036
2017-04-27T14:49:33.453Z,2352
2017-04-27T14:50:43.125Z,2448
2017-04-27T14:51:53.429Z,2512
2017-04-27T14:53:03.106Z,2532
2017-04-27T14:54:13.669Z,2592
2017-04-27T14:55:23.985Z,2532
2017-04-27T14:56:34.298Z,2600
2017-04-27T14:57:44.621Z,2568
2017-04-27T14:58:54.630Z,2280
2017-04-27T15:00:05.194Z,1992
2017-04-27T15:01:15.503Z,1852
2017-04-27T15:02:25.872Z,1844
2017-04-27T15:03:36.205Z,1856
2017-04-27T15:04:46.203Z,1836
2017-04-27T15:05:56.757Z,1840
2017-04-27T15:07:07.067Z,1888
2017-04-27T15:08:17.070Z,1956
2017-04-27T15:09:27.386Z,1944
2017-04-27T15:10:37.383Z,1924
2017-04-27T15:11:47.683Z,1972
2017-04-27T15:12:57.988Z,2000
2017-04-27T15:14:08.004Z,1976
2017-04-27T15:15:18.317Z,1940
2017-04-27T15:16:28.313Z,1892
2017-04-27T15:17:38.616Z,1848
2017-04-27T15:18:48.844Z,1824
2017-04-27T15:19:58.851Z,1792
2017-04-27T15:21:09.204Z,1736
2017-04-27T15:22:19.527Z,1660
2017-04-27T15:23:30.111Z,1596
2017-04-27T15:24:40.477Z,1524
2017-04-27T15:25:50.776Z,1484
2017-04-27T15:27:00.801Z,1548
2017-04-27T15:28:11.121Z,1668
2017-04-27T15:29:21.762Z,1748
2017-04-27T15:30:32.100Z,1836
2017-04-27T15:31:41.472Z,1920
2017-04-27T15:32:51.495Z,2040
2017-04-27T15:34:01.830Z,2276
2017-04-27T15:35:12.414Z,2584
2017-04-27T15:36:22.422Z,2676
2017-04-27T15:37:32.428Z,2464
2017-04-27T15:38:42.758Z,2236
2017-04-27T15:39:52.757Z,2176
2017-04-27T15:41:03.324Z,2132
2017-04-27T15:42:13.347Z,2052
2017-04-27T15:43:23.669Z,1920
2017-04-27T15:44:33.976Z,1724
2017-04-27T15:45:44.329Z,1636
2017-04-27T15:46:54.902Z,1660
2017-04-27T15:48:04.889Z,1808
2017-04-27T15:49:14.879Z,1744
2017-04-27T15:50:24.904Z,1516
2017-04-27T15:51:34.923Z,1336
2017-04-27T15:52:45.495Z,1304
2017-04-27T15:53:55.820Z,1304
2017-04-27T15:55:05.856Z,1364
2017-04-27T15:56:16.174Z,1300
2017-04-27T15:57:25.544Z,1216
2017-04-27T15:58:36.163Z,1284
2017-04-27T15:59:46.494Z,1232
2017-04-27T16:00:56.855Z,1160
2017-04-27T16:02:07.197Z,1132
2017-04-27T16:03:17.215Z,1136